Observation data for Northwest San Angelo on 02/10/2018      Previous  Date  Next       Current Mesonet Observations  Soil Data  Daily Summary Page  Observations in Plain Language
KASU 100600Z 19008KT 12/06 A2993 RMK A01 T01240062  RH  067%=      5-min Rain = 0
KASU 100605Z 20008G13KT 12/06 A2993 RMK A01 T01240062  RH  067%=      5-min Rain = 0
KASU 100610Z 20007KT 12/06 A2993 RMK A01 T01240062  RH  067%=      5-min Rain = 0
KASU 100615Z 20007KT 12/06 A2993 RMK A01 T01220061  RH  067%=      5-min Rain = 0
KASU 100620Z 19007KT 12/06 A2992 RMK A01 T01220062  RH  067%=      5-min Rain = 0
KASU 100625Z 19007KT 12/06 A2992 RMK A01 T01210062  RH  068%=      5-min Rain = 0
KASU 100630Z 19007KT 12/06 A2992 RMK A01 T01170060  RH  069%=      5-min Rain = 0
KASU 100635Z 18007KT 12/06 A2992 RMK A01 T01150060  RH  070%=      5-min Rain = 0
KASU 100640Z 18007KT 11/06 A2992 RMK A01 T01130059  RH  070%=      5-min Rain = 0
KASU 100645Z 18007KT 11/06 A2991 RMK A01 T01110059  RH  071%=      5-min Rain = 0
KASU 100650Z 18006KT 11/06 A2991 RMK A01 T01080057  RH  072%=      5-min Rain = 0
KASU 100655Z 18005KT 11/06 A2991 RMK A01 T01070057  RH  072%=      5-min Rain = 0
KASU 100700Z 19004KT 11/06 A2991 RMK A01 T01060057  RH  073%=      5-min Rain = 0
KASU 100705Z 20003KT 11/06 A2991 RMK A01 T01080057  RH  072%=      5-min Rain = 0
KASU 100710Z 19004KT 11/06 A2991 RMK A01 T01060057  RH  072%=      5-min Rain = 0
KASU 100715Z 19004KT 11/06 A2991 RMK A01 T01050056  RH  073%=      5-min Rain = 0
KASU 100720Z 19005KT 10/06 A2991 RMK A01 T01030056  RH  074%=      5-min Rain = 0
KASU 100725Z 19007KT 11/06 A2991 RMK A01 T01050059  RH  074%=      5-min Rain = 0
KASU 100730Z 20007KT 11/06 A299 RMK A01 T01100062  RH  073%=      5-min Rain = 0
KASU 100735Z 20007KT 11/06 A299 RMK A01 T01110061  RH  073%=      5-min Rain = 0
KASU 100740Z 21005KT 11/06 A2991 RMK A01 T01090060  RH  073%=      5-min Rain = 0
KASU 100745Z 20005KT 11/06 A2991 RMK A01 T01080060  RH  074%=      5-min Rain = 0
KASU 100750Z 21004KT 11/06 A299 RMK A01 T01060059  RH  074%=      5-min Rain = 0
KASU 100755Z 22004KT 10/06 A299 RMK A01 T01040059  RH  075%=      5-min Rain = 0
KASU 100800Z 21004KT 11/06 A299 RMK A01 T01050060  RH  075%=      5-min Rain = 0
KASU 100805Z 20004KT 10/06 A299 RMK A01 T01030059  RH  075%=      5-min Rain = 0
KASU 100810Z 23002KT 10/06 A299 RMK A01 T01010058  RH  076%=      5-min Rain = 0
KASU 100815Z 24002KT 10/06 A299 RMK A01 T01000058  RH  077%=      5-min Rain = 0
KASU 100820Z 21004KT 10/06 A299 RMK A01 T00980058  RH  077%=      5-min Rain = 0
KASU 100825Z 24003KT 10/06 A299 RMK A01 T00980058  RH  077%=      5-min Rain = 0
KASU 100830Z 25003KT 10/06 A299 RMK A01 T00990060  RH  078%=      5-min Rain = 0
KASU 100835Z 29001KT 10/06 A299 RMK A01 T00990060  RH  078%=      5-min Rain = 0
KASU 100840Z 32002KT 10/06 A299 RMK A01 T00970059  RH  078%=      5-min Rain = 0
KASU 100845Z 36004KT 10/06 A2991 RMK A01 T00960059  RH  079%=      5-min Rain = 0
KASU 100850Z 01005KT 09/06 A2991 RMK A01 T00940058  RH  079%=      5-min Rain = 0
KASU 100855Z 01003KT 09/06 A2991 RMK A01 T00920055  RH  079%=      5-min Rain = 0
KASU 100900Z 03003KT 09/05 A2991 RMK A01 T00890054  RH  080%=      5-min Rain = 0
KASU 100905Z 04004KT 09/05 A2991 RMK A01 T00860051  RH  080%=      5-min Rain = 0
KASU 100910Z 04004KT 09/05 A2991 RMK A01 T00850053  RH  081%=      5-min Rain = 0
KASU 100915Z 05004KT 09/05 A2991 RMK A01 T00860054  RH  082%=      5-min Rain = 0
KASU 100920Z 06003KT 09/05 A299 RMK A01 T00850054  RH  082%=      5-min Rain = 0
KASU 100925Z 03002KT 08/05 A299 RMK A01 T00790047  RH  081%=      5-min Rain = 0
KASU 100930Z 34001KT 07/04 A299 RMK A01 T00680038  RH  082%=      5-min Rain = 0
KASU 100935Z 35000KT 07/04 A299 RMK A01 T00700042  RH  084%=      5-min Rain = 0
KASU 100940Z 03001KT 08/05 A299 RMK A01 T00760051  RH  085%=      5-min Rain = 0
KASU 100945Z 06002KT 08/05 A299 RMK A01 T00770052  RH  085%=      5-min Rain = 0
KASU 100950Z 11002KT 08/05 A299 RMK A01 T00750050  RH  086%=      5-min Rain = 0
KASU 100955Z 05001KT 07/05 A299 RMK A01 T00740050  RH  086%=      5-min Rain = 0
KASU 101000Z 05002KT 08/05 A299 RMK A01 T00750052  RH  086%=      5-min Rain = 0
KASU 101005Z 05001KT 08/05 A2991 RMK A01 T00760054  RH  087%=      5-min Rain = 0
KASU 101010Z 10002KT 08/06 A2991 RMK A01 T00770055  RH  087%=      5-min Rain = 0
KASU 101015Z 20003KT 08/06 A2991 RMK A01 T00810060  RH  088%=      5-min Rain = 0
KASU 101020Z 23004KT 09/07 A2991 RMK A01 T00860065  RH  088%=      5-min Rain = 0
KASU 101025Z 24001KT 09/06 A2991 RMK A01 T00860063  RH  087%=      5-min Rain = 0
KASU 101030Z 33001KT 08/06 A2992 RMK A01 T00840062  RH  087%=      5-min Rain = 0
KASU 101035Z 34002KT 09/06 A2992 RMK A01 T00850063  RH  087%=      5-min Rain = 0
KASU 101040Z 35003KT 08/05 A2991 RMK A01 T00750051  RH  086%=      5-min Rain = 0
KASU 101045Z 01005KT 08/06 A2992 RMK A01 T00770055  RH  087%=      5-min Rain = 0
KASU 101050Z 01005KT 08/06 A2992 RMK A01 T00770056  RH  088%=      5-min Rain = 0
KASU 101055Z 00005KT 08/06 A2992 RMK A01 T00790058  RH  088%=      5-min Rain = 0
KASU 101100Z 35006KT 08/06 A2992 RMK A01 T00790058  RH  088%=      5-min Rain = 0
KASU 101105Z 36006KT 08/05 A2992 RMK A01 T00750054  RH  087%=      5-min Rain = 0
KASU 101110Z 35006KT 08/06 A2992 RMK A01 T00780056  RH  087%=      5-min Rain = 0
KASU 101115Z 35005KT 08/06 A2992 RMK A01 T00790056  RH  087%=      5-min Rain = 0
KASU 101120Z 36008KT 08/06 A2992 RMK A01 T00790055  RH  086%=      5-min Rain = 0
KASU 101125Z 36009G14KT 07/04 A2993 RMK A01 T00670040  RH  084%=      5-min Rain = 0
KASU 101130Z 01009G14KT 06/03 A2993 RMK A01 T00610028  RH  080%=      5-min Rain = 0
KASU 101135Z 01009G14KT 06/01 A2993 RMK A01 T00570013  RH  075%=      5-min Rain = 0
KASU 101140Z 01009G14KT 05/00 A2994 RMK A01 T00540000  RH  069%=      5-min Rain = 0
KASU 101145Z 02007KT 05/M01 A2994 RMK A01 T00521007  RH  067%=      5-min Rain = 0
KASU 101150Z 01008G14KT 05/M02 A2994 RMK A01 T00501015  RH  064%=      5-min Rain = 0
KASU 101155Z 01006G15KT 05/M02 A2994 RMK A01 T00481020  RH  062%=      5-min Rain = 0
KASU 101200Z 01005G11KT 05/M02 A2994 RMK A01 T00481022  RH  061%=      5-min Rain = 0
KASU 101205Z 01005G10KT 05/M03 A2994 RMK A01 T00471025  RH  060%=      5-min Rain = 0
KASU 101210Z 00008KT 04/M03 A2995 RMK A01 T00431031  RH  059%=      5-min Rain = 0
KASU 101215Z 00008G14KT 04/M04 A2995 RMK A01 T00411036  RH  058%=      5-min Rain = 0
KASU 101220Z 01008KT 04/M04 A2995 RMK A01 T00401037  RH  058%=      5-min Rain = 0
KASU 101225Z 35008KT 04/M04 A2995 RMK A01 T00391039  RH  057%=      5-min Rain = 0
KASU 101230Z 35009G14KT 04/M04 A2996 RMK A01 T00381041  RH  057%=      5-min Rain = 0
KASU 101235Z 35010G15KT 04/M04 A2996 RMK A01 T00361044  RH  056%=      5-min Rain = 0
KASU 101240Z 36007KT 03/M05 A2997 RMK A01 T00341047  RH  056%=      5-min Rain = 0
KASU 101245Z 36006KT 03/M05 A2997 RMK A01 T00341047  RH  056%=      5-min Rain = 0
KASU 101250Z 36007G12KT 03/M05 A2997 RMK A01 T00331049  RH  055%=      5-min Rain = 0
KASU 101255Z 35011KT 03/M05 A2997 RMK A01 T00311052  RH  055%=      5-min Rain = 0
KASU 101300Z 36011G17KT 03/M06 A2998 RMK A01 T00271057  RH  054%=      5-min Rain = 0
KASU 101305Z 01008KT 03/M06 A2998 RMK A01 T00251060  RH  054%=      5-min Rain = 0
KASU 101310Z 00007G13KT 02/M06 A2998 RMK A01 T00241061  RH  054%=      5-min Rain = 0
KASU 101315Z 35011KT 02/M06 A2998 RMK A01 T00221064  RH  054%=      5-min Rain = 0
KASU 101320Z 35008G13KT 02/M07 A2999 RMK A01 T00211065  RH  054%=      5-min Rain = 0
KASU 101325Z 35008KT 02/M07 A2999 RMK A01 T00201065  RH  054%=      5-min Rain = 0
KASU 101330Z 35008KT 02/M07 A2999 RMK A01 T00191067  RH  054%=      5-min Rain = 0
KASU 101335Z 35008KT 02/M07 A2999 RMK A01 T00171068  RH  054%=      5-min Rain = 0
KASU 101340Z 36008KT 02/M07 A2999 RMK A01 T00161070  RH  054%=      5-min Rain = 0
KASU 101345Z 36007KT 01/M07 A2999 RMK A01 T00141071  RH  054%=      5-min Rain = 0
KASU 101350Z 35008KT 01/M07 A30 RMK A01 T00131072  RH  054%=      5-min Rain = 0
KASU 101355Z 36007G12KT 01/M07 A30 RMK A01 T00111073  RH  054%=      5-min Rain = 0
KASU 101400Z 35007KT 01/M07 A30 RMK A01 T00101073  RH  054%=      5-min Rain = 0
KASU 101405Z 35008KT 01/M07 A3001 RMK A01 T00091072  RH  055%=      5-min Rain = 0
KASU 101410Z 34008KT 01/M07 A3001 RMK A01 T00081072  RH  056%=      5-min Rain = 0
KASU 101415Z 35007KT 01/M07 A3001 RMK A01 T00081071  RH  056%=      5-min Rain = 0
KASU 101420Z 34008KT 01/M07 A3001 RMK A01 T00071073  RH  056%=      5-min Rain = 0
KASU 101425Z 34009KT 01/M07 A3001 RMK A01 T00061067  RH  059%=      5-min Rain = 0
KASU 101430Z 35007KT 00/M07 A3002 RMK A01 T00041066  RH  060%=      5-min Rain = 0
KASU 101435Z 01006KT 00/M07 A3002 RMK A01 T00031068  RH  059%=      5-min Rain = 0
KASU 101440Z 34007KT 00/M07 A3002 RMK A01 T00021067  RH  060%=      5-min Rain = 0
KASU 101445Z 34009KT 00/M06 A3002 RMK A01 T00021064  RH  062%=      5-min Rain = 0
KASU 101450Z 35008KT 00/M06 A3002 RMK A01 T00011064  RH  063%=      5-min Rain = 0
KASU 101455Z 34008KT 00/06 A3002 RMK A01 T00000-62  RH  064%=      5-min Rain = 0
KASU 101500Z 00006KT M00/M06 A3002 RMK A01 T10021063  RH  064%=      5-min Rain = 0
KASU 101505Z 36006KT 00/07 A3002 RMK A01 T00-00-66  RH  062%=      5-min Rain = 0
KASU 101510Z 35008KT 00/07 A3002 RMK A01 T00-00-66  RH  062%=      5-min Rain = 0
KASU 101515Z 35007KT M00/M07 A3002 RMK A01 T10021069  RH  061%=      5-min Rain = 0
KASU 101520Z 01006KT M00/M07 A3003 RMK A01 T10021067  RH  062%=      5-min Rain = 0
KASU 101525Z 01005G10KT M00/M07 A3003 RMK A01 T10021066  RH  062%=      5-min Rain = 0
KASU 101530Z 01006KT M00/M07 A3003 RMK A01 T10021067  RH  062%=      5-min Rain = 0
KASU 101535Z 01007KT M00/M07 A3003 RMK A01 T10041068  RH  062%=      5-min Rain = 0
KASU 101540Z 03006KT M00/M06 A3003 RMK A01 T10031064  RH  064%=      5-min Rain = 0
KASU 101545Z 03005KT 00/07 A3003 RMK A01 T00-00-66  RH  062%=      5-min Rain = 0
KASU 101550Z 00006KT 00/M07 A3003 RMK A01 T00021068  RH  060%=      5-min Rain = 0
KASU 101555Z 34005KT 00/M07 A3003 RMK A01 T00031068  RH  059%=      5-min Rain = 0
KASU 101600Z 02006KT 00/M07 A3003 RMK A01 T00041068  RH  059%=      5-min Rain = 0
KASU 101605Z 36007KT 00/M07 A3003 RMK A01 T00011066  RH  061%=      5-min Rain = 0
KASU 101610Z 34008KT 00/M07 A3003 RMK A01 T00021065  RH  061%=      5-min Rain = 0
KASU 101615Z 35008KT 00/M07 A3003 RMK A01 T00041066  RH  060%=      5-min Rain = 0
KASU 101620Z 35006KT 00/M07 A3003 RMK A01 T00031067  RH  060%=      5-min Rain = 0
KASU 101625Z 35005KT 01/M07 A3003 RMK A01 T00051073  RH  057%=      5-min Rain = 0
KASU 101630Z 35007KT 01/M07 A3003 RMK A01 T00081073  RH  055%=      5-min Rain = 0
KASU 101635Z 35006KT 01/M07 A3003 RMK A01 T00111073  RH  054%=      5-min Rain = 0
KASU 101640Z 35006KT 01/M08 A3004 RMK A01 T00091076  RH  054%=      5-min Rain = 0
KASU 101645Z 34007KT 01/M07 A3003 RMK A01 T00101074  RH  054%=      5-min Rain = 0
KASU 101650Z 33008KT 01/M07 A3003 RMK A01 T00121069  RH  055%=      5-min Rain = 0
KASU 101655Z 33008KT 01/M07 A3004 RMK A01 T00131068  RH  056%=      5-min Rain = 0
KASU 101700Z 35008G13KT 01/M07 A3004 RMK A01 T00101069  RH  056%=      5-min Rain = 0
KASU 101705Z 34007KT 01/M07 A3004 RMK A01 T00111066  RH  057%=      5-min Rain = 0
KASU 101710Z 34008G14KT 01/M07 A3004 RMK A01 T00131066  RH  056%=      5-min Rain = 0
KASU 101715Z 34008KT 01/M07 A3003 RMK A01 T00131066  RH  056%=      5-min Rain = 0
KASU 101720Z 00006KT 01/M07 A3003 RMK A01 T00111068  RH  056%=      5-min Rain = 0
KASU 101725Z 01006KT 01/M07 A3003 RMK A01 T00081068  RH  058%=      5-min Rain = 0
KASU 101730Z 36004KT 01/M06 A3003 RMK A01 T00131064  RH  057%=      5-min Rain = 0
KASU 101735Z 34006G11KT 01/M07 A3003 RMK A01 T00121066  RH  057%=      5-min Rain = 0
KASU 101740Z 33008KT 01/M07 A3003 RMK A01 T00121067  RH  056%=      5-min Rain = 0
KASU 101745Z 33009KT 02/M06 A3003 RMK A01 T00151064  RH  056%=      5-min Rain = 0
KASU 101750Z 32009KT 01/M06 A3003 RMK A01 T00141064  RH  057%=      5-min Rain = 0
KASU 101755Z 34009KT 02/M06 A3003 RMK A01 T00151063  RH  057%=      5-min Rain = 0
KASU 101800Z 34008KT 02/M06 A3002 RMK A01 T00171061  RH  057%=      5-min Rain = 0
KASU 101805Z 33006KT 02/M06 A3002 RMK A01 T00171061  RH  057%=      5-min Rain = 0
KASU 101810Z 00006KT 02/M06 A3002 RMK A01 T00191063  RH  055%=      5-min Rain = 0
KASU 101815Z 35007KT 02/M07 A3001 RMK A01 T00201065  RH  054%=      5-min Rain = 0
KASU 101820Z 00007G12KT 02/M07 A3001 RMK A01 T00181065  RH  054%=      5-min Rain = 0
KASU 101825Z 00005G10KT 02/M06 A3001 RMK A01 T00181062  RH  056%=      5-min Rain = 0
KASU 101830Z 36006KT 02/M06 A3001 RMK A01 T00201062  RH  055%=      5-min Rain = 0
KASU 101835Z 35005KT 02/M06 A3001 RMK A01 T00221061  RH  055%=      5-min Rain = 0
KASU 101840Z 02006KT 02/M06 A30 RMK A01 T00241063  RH  053%=      5-min Rain = 0
KASU 101845Z 01006KT 02/M06 A30 RMK A01 T00221064  RH  054%=      5-min Rain = 0
KASU 101850Z 35006KT 03/M06 A30 RMK A01 T00251062  RH  053%=      5-min Rain = 0
KASU 101855Z 01005KT 03/M06 A2999 RMK A01 T00251062  RH  053%=      5-min Rain = 0
KASU 101900Z 03005KT 03/M06 A2999 RMK A01 T00291060  RH  053%=      5-min Rain = 0
KASU 101905Z 03006KT 03/M06 A2999 RMK A01 T00281060  RH  053%=      5-min Rain = 0
KASU 101910Z 00006KT 03/M06 A2998 RMK A01 T00301057  RH  053%=      5-min Rain = 0
KASU 101915Z 36005KT 03/M06 A2998 RMK A01 T00301060  RH  052%=      5-min Rain = 0
KASU 101920Z 36005KT 03/M06 A2998 RMK A01 T00321060  RH  051%=      5-min Rain = 0
KASU 101925Z 02004KT 04/M06 A2997 RMK A01 T00361058  RH  051%=      5-min Rain = 0
KASU 101930Z 01005KT 04/M06 A2997 RMK A01 T00371063  RH  049%=      5-min Rain = 0
KASU 101935Z 35007KT 03/M06 A2996 RMK A01 T00331061  RH  050%=      5-min Rain = 0
KASU 101940Z 01004G9KT 04/M06 A2996 RMK A01 T00371057  RH  051%=      5-min Rain = 0
KASU 101945Z 02005KT 04/M06 A2995 RMK A01 T00391057  RH  050%=      5-min Rain = 0
KASU 101950Z 02003KT 04/M06 A2995 RMK A01 T00381056  RH  051%=      5-min Rain = 0
KASU 101955Z 00004KT 04/M05 A2995 RMK A01 T00381054  RH  051%=      5-min Rain = 0
KASU 102000Z 34004KT 04/M05 A2994 RMK A01 T00401050  RH  052%=      5-min Rain = 0
KASU 102005Z 02003KT 04/M05 A2994 RMK A01 T00431052  RH  051%=      5-min Rain = 0
KASU 102010Z 34004KT 04/M06 A2994 RMK A01 T00411056  RH  050%=      5-min Rain = 0
KASU 102015Z 05002KT 04/M06 A2993 RMK A01 T00431055  RH  050%=      5-min Rain = 0
KASU 102020Z 35003KT 05/M05 A2993 RMK A01 T00471052  RH  049%=      5-min Rain = 0
KASU 102025Z 31005KT 05/M05 A2993 RMK A01 T00461052  RH  050%=      5-min Rain = 0
KASU 102030Z 30002KT 05/M05 A2992 RMK A01 T00461050  RH  050%=      5-min Rain = 0
KASU 102035Z 07003KT 05/M05 A2992 RMK A01 T00541046  RH  049%=      5-min Rain = 0
KASU 102040Z 10004KT 06/M05 A2992 RMK A01 T00561051  RH  047%=      5-min Rain = 0
KASU 102045Z 32002KT 06/M05 A2992 RMK A01 T00551047  RH  048%=      5-min Rain = 0
KASU 102050Z 33005KT 06/M05 A2992 RMK A01 T00551046  RH  049%=      5-min Rain = 0
KASU 102055Z 34004KT 06/M05 A2992 RMK A01 T00591047  RH  047%=      5-min Rain = 0
KASU 102100Z 01003KT 06/M05 A2992 RMK A01 T00611047  RH  046%=      5-min Rain = 0
KASU 102105Z 31003G8KT 07/M04 A2991 RMK A01 T00651043  RH  047%=      5-min Rain = 0
KASU 102110Z 31005KT 06/M04 A2991 RMK A01 T00631042  RH  047%=      5-min Rain = 0
KASU 102115Z 31003KT 06/M04 A2991 RMK A01 T00611040  RH  049%=      5-min Rain = 0
KASU 102120Z 03003KT 07/M05 A2991 RMK A01 T00651046  RH  045%=      5-min Rain = 0
KASU 102125Z 09003KT 06/M05 A299 RMK A01 T00631045  RH  046%=      5-min Rain = 0
KASU 102130Z 16003KT 06/M05 A299 RMK A01 T00631045  RH  046%=      5-min Rain = 0
KASU 102135Z 18002KT 07/M04 A2989 RMK A01 T00691042  RH  046%=      5-min Rain = 0
KASU 102140Z 20001KT 07/M04 A2989 RMK A01 T00731041  RH  045%=      5-min Rain = 0
KASU 102145Z 09004KT 07/M04 A2989 RMK A01 T00731042  RH  044%=      5-min Rain = 0
KASU 102150Z 04004KT 07/M04 A2989 RMK A01 T00721040  RH  045%=      5-min Rain = 0
KASU 102155Z 03002KT 07/M04 A2989 RMK A01 T00701041  RH  046%=      5-min Rain = 0
KASU 102200Z 13001KT 07/M04 A2989 RMK A01 T00731040  RH  045%=      5-min Rain = 0
KASU 102205Z 05002KT 08/M04 A2989 RMK A01 T00781039  RH  044%=      5-min Rain = 0
KASU 102210Z 15001KT 08/M04 A2989 RMK A01 T00751040  RH  044%=      5-min Rain = 0
KASU 102215Z 17001KT 08/M04 A2988 RMK A01 T00781038  RH  044%=      5-min Rain = 0
KASU 102220Z 18002KT 08/M04 A2988 RMK A01 T00811040  RH  043%=      5-min Rain = 0
KASU 102225Z 19001KT 08/M04 A2988 RMK A01 T00781039  RH  044%=      5-min Rain = 0
KASU 102230Z 09003KT 08/M04 A2988 RMK A01 T00781042  RH  043%=      5-min Rain = 0
KASU 102235Z 06001KT 08/M04 A2989 RMK A01 T00831041  RH  042%=      5-min Rain = 0
KASU 102240Z 07003KT 08/M04 A2988 RMK A01 T00841043  RH  041%=      5-min Rain = 0
KASU 102245Z 08004KT 08/M05 A2988 RMK A01 T00801046  RH  041%=      5-min Rain = 0
KASU 102250Z 10002KT 08/M05 A2988 RMK A01 T00781045  RH  042%=      5-min Rain = 0
KASU 102255Z 05003KT 08/M05 A2988 RMK A01 T00811045  RH  041%=      5-min Rain = 0
KASU 102300Z 04002KT 08/M05 A2987 RMK A01 T00811045  RH  041%=      5-min Rain = 0
KASU 102305Z 10002KT 08/M05 A2987 RMK A01 T00831045  RH  040%=      5-min Rain = 0
KASU 102310Z 12003KT 08/M05 A2986 RMK A01 T00791045  RH  042%=      5-min Rain = 0
KASU 102315Z 11004KT 08/M04 A2986 RMK A01 T00801043  RH  042%=      5-min Rain = 0
KASU 102320Z 09006KT 08/M05 A2985 RMK A01 T00781045  RH  042%=      5-min Rain = 0
KASU 102325Z 10008KT 07/M05 A2985 RMK A01 T00741048  RH  042%=      5-min Rain = 0
KASU 102330Z 09008KT 07/M05 A2985 RMK A01 T00741048  RH  042%=      5-min Rain = 0
KASU 102335Z 09007KT 07/M05 A2986 RMK A01 T00701048  RH  043%=      5-min Rain = 0
KASU 102340Z 11006KT 07/M05 A2986 RMK A01 T00661049  RH  044%=      5-min Rain = 0
KASU 102345Z 10008KT 06/M05 A2986 RMK A01 T00641050  RH  045%=      5-min Rain = 0
KASU 102350Z 10007KT 06/M05 A2986 RMK A01 T00611050  RH  045%=      5-min Rain = 0
KASU 102355Z 10008KT 06/M05 A2986 RMK A01 T00591050  RH  046%=      5-min Rain = 0
KASU 110000Z 09007KT 06/M05 A2986 RMK A01 T00581052  RH  046%=      5-min Rain = 0
KASU 110005Z 09009KT 05/M05 A2986 RMK A01 T00541054  RH  046%=      5-min Rain = 0
KASU 110010Z 09008KT 05/M06 A2987 RMK A01 T00521055  RH  047%=      5-min Rain = 0
KASU 110015Z 08008KT 05/M06 A2987 RMK A01 T00501055  RH  047%=      5-min Rain = 0
KASU 110020Z 09008KT 05/M06 A2987 RMK A01 T00481056  RH  047%=      5-min Rain = 0
KASU 110025Z 08007KT 05/M06 A2987 RMK A01 T00471057  RH  048%=      5-min Rain = 0
KASU 110030Z 09008KT 05/M06 A2988 RMK A01 T00451056  RH  048%=      5-min Rain = 0
KASU 110035Z 08007KT 04/M06 A2988 RMK A01 T00441057  RH  049%=      5-min Rain = 0
KASU 110040Z 07007KT 04/M06 A2988 RMK A01 T00431056  RH  049%=      5-min Rain = 0
KASU 110045Z 07008KT 04/M06 A2988 RMK A01 T00421056  RH  050%=      5-min Rain = 0
KASU 110050Z 07008KT 04/M06 A2988 RMK A01 T00401056  RH  050%=      5-min Rain = 0
KASU 110055Z 07008KT 04/M06 A2989 RMK A01 T00391056  RH  051%=      5-min Rain = 0
KASU 110100Z 07007KT 04/M06 A2989 RMK A01 T00381056  RH  051%=      5-min Rain = 0
KASU 110105Z 07007KT 04/M06 A2989 RMK A01 T00361057  RH  051%=      5-min Rain = 0
KASU 110110Z 07007KT 04/M06 A2989 RMK A01 T00361057  RH  051%=      5-min Rain = 0
KASU 110115Z 07007KT 03/M06 A2989 RMK A01 T00341058  RH  051%=      5-min Rain = 0
KASU 110120Z 07007KT 03/M06 A2989 RMK A01 T00331058  RH  052%=      5-min Rain = 0
KASU 110125Z 06006KT 03/M06 A2989 RMK A01 T00321059  RH  052%=      5-min Rain = 0
KASU 110130Z 06006KT 03/M06 A2989 RMK A01 T00291060  RH  053%=      5-min Rain = 0
KASU 110135Z 06007KT 03/M06 A2989 RMK A01 T00281060  RH  053%=      5-min Rain = 0
KASU 110140Z 05007KT 03/M06 A2989 RMK A01 T00271060  RH  053%=      5-min Rain = 0
KASU 110145Z 06007KT 03/M06 A2989 RMK A01 T00261061  RH  053%=      5-min Rain = 0
KASU 110150Z 06008KT 03/M06 A2989 RMK A01 T00261061  RH  053%=      5-min Rain = 0
KASU 110155Z 06009KT 03/M06 A2989 RMK A01 T00251061  RH  054%=      5-min Rain = 0
KASU 110200Z 07009KT 02/M06 A2989 RMK A01 T00241062  RH  054%=      5-min Rain = 0
KASU 110205Z 07009KT 02/M06 A2989 RMK A01 T00231062  RH  054%=      5-min Rain = 0
KASU 110210Z 06009KT 02/M06 A299 RMK A01 T00221063  RH  054%=      5-min Rain = 0
KASU 110215Z 07008KT 02/M06 A299 RMK A01 T00211063  RH  054%=      5-min Rain = 0
KASU 110220Z 06008KT 02/M06 A2991 RMK A01 T00201063  RH  055%=      5-min Rain = 0
KASU 110225Z 07009KT 02/M06 A2991 RMK A01 T00191064  RH  055%=      5-min Rain = 0
KASU 110230Z 07011KT 02/M06 A2991 RMK A01 T00191064  RH  055%=      5-min Rain = 0
KASU 110235Z 07009KT 02/M06 A2992 RMK A01 T00181064  RH  055%=      5-min Rain = 0
KASU 110240Z 07008KT 02/M07 A2992 RMK A01 T00171065  RH  055%=      5-min Rain = 0
KASU 110245Z 07007KT 02/M07 A2992 RMK A01 T00161065  RH  056%=      5-min Rain = 0
KASU 110250Z 07008KT 01/M07 A2991 RMK A01 T00141066  RH  056%=      5-min Rain = 0
KASU 110255Z 07008KT 01/M07 A2992 RMK A01 T00141067  RH  056%=      5-min Rain = 0
KASU 110300Z 06007KT 01/M07 A2993 RMK A01 T00131068  RH  056%=      5-min Rain = 0
KASU 110305Z 06006KT 01/M07 A2993 RMK A01 T00111068  RH  056%=      5-min Rain = 0
KASU 110310Z 05007KT 01/M07 A2992 RMK A01 T00101069  RH  056%=      5-min Rain = 0
KASU 110315Z 06007KT 01/M07 A2992 RMK A01 T00101069  RH  056%=      5-min Rain = 0
KASU 110320Z 04005KT 01/M07 A2993 RMK A01 T00091069  RH  056%=      5-min Rain = 0
KASU 110325Z 05005KT 01/M07 A2993 RMK A01 T00081070  RH  057%=      5-min Rain = 0
KASU 110330Z 06007KT 01/M07 A2992 RMK A01 T00071070  RH  057%=      5-min Rain = 0
KASU 110335Z 06006KT 01/M07 A2992 RMK A01 T00071070  RH  057%=      5-min Rain = 0
KASU 110340Z 05006KT 01/M07 A2993 RMK A01 T00061071  RH  057%=      5-min Rain = 0
KASU 110345Z 06007KT 01/M07 A2992 RMK A01 T00061071  RH  057%=      5-min Rain = 0
KASU 110350Z 05005KT 01/M07 A2992 RMK A01 T00061071  RH  057%=      5-min Rain = 0
KASU 110355Z 05006KT 01/M07 A2992 RMK A01 T00061071  RH  057%=      5-min Rain = 0
KASU 110400Z 06006KT 01/M07 A2992 RMK A01 T00061071  RH  057%=      5-min Rain = 0
KASU 110405Z 06006KT 01/M07 A2991 RMK A01 T00051071  RH  057%=      5-min Rain = 0
KASU 110410Z 06006KT 01/M07 A2992 RMK A01 T00051071  RH  058%=      5-min Rain = 0
KASU 110415Z 05005KT 00/M07 A2992 RMK A01 T00041070  RH  058%=      5-min Rain = 0
KASU 110420Z 05007KT 00/M07 A2993 RMK A01 T00041068  RH  059%=      5-min Rain = 0
KASU 110425Z 05007KT 00/M07 A2993 RMK A01 T00041066  RH  060%=      5-min Rain = 0
KASU 110430Z 04007KT 00/M06 A2993 RMK A01 T00041064  RH  061%=      5-min Rain = 0
KASU 110435Z 03005KT 00/M06 A2994 RMK A01 T00041063  RH  061%=      5-min Rain = 0
KASU 110440Z 02005G10KT 00/M06 A2994 RMK A01 T00041062  RH  062%=      5-min Rain = 0
KASU 110445Z 03006KT 00/M06 A2994 RMK A01 T00041062  RH  062%=      5-min Rain = 0
KASU 110450Z 03005KT 00/M06 A2994 RMK A01 T00031062  RH  062%=      5-min Rain = 0
KASU 110455Z 03005G10KT 00/M06 A2994 RMK A01 T00021062  RH  062%=      5-min Rain = 0
KASU 110500Z 04007KT 00/M06 A2995 RMK A01 T00021064  RH  062%=      5-min Rain = 0
KASU 110505Z 04007KT 00/M07 A2995 RMK A01 T00021068  RH  060%=      5-min Rain = 0
KASU 110510Z 04008KT 00/M07 A2995 RMK A01 T00011071  RH  059%=      5-min Rain = 0
KASU 110515Z 04007KT 00/M07 A2995 RMK A01 T00011073  RH  058%=      5-min Rain = 0
KASU 110520Z 03006KT 00/M07 A2996 RMK A01 T00011074  RH  058%=      5-min Rain = 0
KASU 110525Z 04007G12KT 00/M08 A2996 RMK A01 T00011076  RH  057%=      5-min Rain = 0
KASU 110530Z 04009KT 00/M08 A2996 RMK A01 T00011077  RH  056%=      5-min Rain = 0
KASU 110535Z 04008G13KT 00/M08 A2996 RMK A01 T00031078  RH  055%=      5-min Rain = 0
KASU 110540Z 04008G14KT 01/M08 A2996 RMK A01 T00051079  RH  054%=      5-min Rain = 0
KASU 110545Z 04008KT 01/M08 A2996 RMK A01 T00061079  RH  054%=      5-min Rain = 0
KASU 110550Z 04009G15KT 01/M08 A2997 RMK A01 T00061080  RH  053%=      5-min Rain = 0
KASU 110555Z 04009G15KT 01/M08 A2996 RMK A01 T00071080  RH  053%=      5-min Rain = 0

Page generated in 0.0093 seconds.